createdAt,value
2018-08-06T00:01:34.968Z,12.02
2018-08-06T00:04:02.448Z,11.43
2018-08-06T00:06:29.921Z,13.23
2018-08-06T00:08:57.360Z,8.82
2018-08-06T00:11:24.836Z,8.55
2018-08-06T00:13:52.428Z,7.05
2018-08-06T00:16:19.809Z,9.52
2018-08-06T00:18:47.269Z,7.62
2018-08-06T00:21:14.713Z,7.80
2018-08-06T00:23:42.106Z,8.38
2018-08-06T00:26:09.731Z,12.07
2018-08-06T00:28:37.215Z,11.07
2018-08-06T00:31:04.672Z,7.32
2018-08-06T00:33:32.122Z,9.15
2018-08-06T00:35:59.675Z,11.35
2018-08-06T00:38:27.129Z,7.20
2018-08-06T00:40:54.614Z,9.10
2018-08-06T00:43:22.048Z,8.77
2018-08-06T00:45:49.523Z,8.38
2018-08-06T00:48:16.927Z,7.82
2018-08-06T00:50:44.346Z,8.55
2018-08-06T00:53:11.750Z,8.90
2018-08-06T00:55:39.305Z,8.20
2018-08-06T00:58:06.738Z,9.77
2018-08-06T01:00:34.172Z,9.10
2018-08-06T01:03:01.604Z,9.15
2018-08-06T01:05:29.052Z,9.75
2018-08-06T01:25:05.529Z,11.65
2018-08-06T01:34:54.144Z,11.70
2018-08-06T01:37:21.619Z,11.50
2018-08-06T01:39:49.102Z,14.00
2018-08-06T01:42:16.535Z,11.77
2018-08-06T01:56:59.446Z,10.73
2018-08-06T01:59:26.930Z,8.55
2018-08-06T02:01:54.409Z,8.00
2018-08-06T02:04:22.329Z,9.70
2018-08-06T02:06:49.741Z,10.98
2018-08-06T02:09:17.186Z,8.95
2018-08-06T02:11:44.581Z,9.07
2018-08-06T02:14:11.995Z,9.50
2018-08-06T02:16:39.484Z,9.43
2018-08-06T02:19:06.961Z,9.20
2018-08-06T02:21:34.375Z,9.77
2018-08-06T02:24:01.829Z,11.18
2018-08-06T02:26:29.287Z,10.15
2018-08-06T02:28:56.836Z,11.50
2018-08-06T02:31:24.269Z,10.30
2018-08-06T02:33:51.662Z,7.68
2018-08-06T02:36:19.113Z,8.75
2018-08-06T02:38:46.524Z,9.57
2018-08-06T02:41:14.016Z,13.25
2018-08-06T02:43:41.471Z,6.03
2018-08-06T02:46:08.913Z,9.68
2018-08-06T02:48:36.471Z,9.77
2018-08-06T02:51:03.919Z,12.68
2018-08-06T02:53:31.418Z,9.68
2018-08-06T02:55:58.882Z,11.25
2018-08-06T02:58:26.449Z,7.70
2018-08-06T03:00:54.071Z,9.45
2018-08-06T03:03:21.474Z,9.10
2018-08-06T03:05:48.975Z,9.32
2018-08-06T03:08:16.538Z,9.02
2018-08-06T03:10:43.991Z,10.88
2018-08-06T03:13:11.476Z,9.20
2018-08-06T03:15:38.944Z,9.52
2018-08-06T03:18:06.436Z,19.12
2018-08-06T03:20:33.844Z,9.02
2018-08-06T03:23:01.342Z,10.60
2018-08-06T03:25:28.786Z,8.73
2018-08-06T03:27:56.234Z,7.00
2018-08-06T03:30:23.654Z,10.18
2018-08-06T03:32:51.061Z,10.05
2018-08-06T03:35:18.571Z,9.30
2018-08-06T03:37:45.978Z,7.62
2018-08-06T03:40:13.481Z,7.80
2018-08-06T03:42:41.630Z,10.38
2018-08-06T03:45:09.143Z,9.27
2018-08-06T03:47:36.608Z,11.48
2018-08-06T03:50:04.034Z,12.10
2018-08-06T03:52:31.516Z,8.68
2018-08-06T03:54:59.005Z,6.85
2018-08-06T03:57:26.417Z,13.85
2018-08-06T03:59:53.895Z,8.32
2018-08-06T04:02:21.305Z,10.85
2018-08-06T04:04:48.783Z,9.50
2018-08-06T04:07:16.228Z,17.92
2018-08-06T04:09:43.634Z,11.43
2018-08-06T04:12:11.053Z,9.68
2018-08-06T04:14:38.516Z,10.90
2018-08-06T04:17:05.967Z,8.50
2018-08-06T04:19:33.425Z,9.60
2018-08-06T04:22:00.886Z,8.45
2018-08-06T04:24:28.319Z,19.12
2018-08-06T04:26:55.779Z,12.82
2018-08-06T04:29:23.257Z,8.95
2018-08-06T04:31:50.744Z,10.38
2018-08-06T04:34:18.181Z,7.12
2018-08-06T04:36:45.701Z,7.60
2018-08-06T04:39:13.150Z,11.30
2018-08-06T04:41:40.677Z,12.27
2018-08-06T04:44:08.121Z,8.07
2018-08-06T04:46:35.511Z,9.75
2018-08-06T04:49:02.943Z,9.68
2018-08-06T04:51:30.348Z,9.38
2018-08-06T04:53:57.820Z,10.20
2018-08-06T04:56:25.294Z,11.95
2018-08-06T04:58:52.719Z,9.00
2018-08-06T05:01:20.304Z,11.35
2018-08-06T05:03:47.723Z,13.15
2018-08-06T05:06:15.145Z,13.40
2018-08-06T05:08:42.604Z,14.15
2018-08-06T05:11:10.031Z,11.55
2018-08-06T05:13:37.504Z,11.05
2018-08-06T05:16:04.993Z,13.40
2018-08-06T05:18:32.505Z,12.75
2018-08-06T05:20:59.961Z,10.57
2018-08-06T05:23:27.736Z,15.10
2018-08-06T05:25:55.178Z,15.82
2018-08-06T05:28:22.656Z,12.82
2018-08-06T05:30:50.106Z,12.40
2018-08-06T05:33:17.557Z,12.00
2018-08-06T05:35:45.094Z,12.35
2018-08-06T05:38:12.577Z,13.88
2018-08-06T05:40:43.671Z,10.00
2018-08-06T05:43:11.101Z,10.07
2018-08-06T05:45:38.472Z,9.82
2018-08-06T05:48:05.968Z,10.52
2018-08-06T05:50:33.412Z,11.55
2018-08-06T05:53:01.101Z,12.07
2018-08-06T05:55:28.508Z,10.02
2018-08-06T05:57:56.055Z,10.25
2018-08-06T06:00:23.488Z,9.80
2018-08-06T06:02:50.950Z,10.38
2018-08-06T06:05:18.507Z,10.25
2018-08-06T06:07:46.169Z,10.10
2018-08-06T06:10:13.744Z,10.10
2018-08-06T06:12:41.206Z,17.10
2018-08-06T06:15:08.605Z,16.85
2018-08-06T06:17:36.053Z,10.95
2018-08-06T06:20:03.539Z,10.55
2018-08-06T06:22:31.059Z,10.32
2018-08-06T06:24:58.519Z,9.43
2018-08-06T06:27:25.990Z,10.48
2018-08-06T06:29:53.494Z,9.50
2018-08-06T06:32:21.178Z,12.25
2018-08-06T06:34:48.722Z,13.55
2018-08-06T06:37:16.128Z,9.32
2018-08-06T06:39:43.634Z,11.30
2018-08-06T06:42:11.025Z,17.70
2018-08-06T06:44:38.503Z,11.85
2018-08-06T06:47:05.921Z,9.30
2018-08-06T06:49:33.505Z,9.60
2018-08-06T06:52:01.133Z,9.82
2018-08-06T06:54:28.722Z,18.08
2018-08-06T06:56:56.130Z,11.95
2018-08-06T06:59:23.771Z,14.25
2018-08-06T07:01:51.303Z,10.65
2018-08-06T07:04:18.909Z,11.82
2018-08-06T07:06:46.319Z,12.60
2018-08-06T07:09:13.760Z,14.87
2018-08-06T07:11:41.232Z,12.48
2018-08-06T07:14:08.737Z,13.43
2018-08-06T07:16:36.167Z,12.77
2018-08-06T07:19:03.704Z,12.32
2018-08-06T07:21:31.499Z,14.93
2018-08-06T07:23:58.992Z,13.15
2018-08-06T07:26:26.450Z,14.20
2018-08-06T07:28:53.875Z,14.90
2018-08-06T07:31:21.278Z,13.10
2018-08-06T07:33:48.779Z,22.02
2018-08-06T07:36:16.376Z,17.27
2018-08-06T07:38:43.855Z,15.73
2018-08-06T07:41:11.355Z,16.92
2018-08-06T07:43:38.851Z,13.60
2018-08-06T07:46:06.324Z,13.70
2018-08-06T08:35:07.484Z,21.62
2018-08-06T08:37:34.887Z,17.15
2018-08-06T08:40:02.445Z,16.00
2018-08-06T08:42:29.898Z,19.05
2018-08-06T08:49:51.350Z,20.80
2018-08-06T08:52:18.829Z,22.58
2018-08-06T08:54:46.356Z,23.90
2018-08-06T08:57:13.815Z,21.08
2018-08-06T08:59:41.318Z,20.75
2018-08-06T09:02:08.987Z,20.25
2018-08-06T09:04:36.479Z,17.95
2018-08-06T09:07:03.921Z,21.85
2018-08-06T09:09:31.396Z,23.83
2018-08-06T09:21:47.075Z,21.98
2018-08-06T09:24:14.506Z,18.80
2018-08-06T09:31:36.006Z,21.95
2018-08-06T09:34:03.593Z,22.98
2018-08-06T09:36:30.969Z,23.98
2018-08-06T09:38:58.521Z,22.48
2018-08-06T09:41:26.002Z,24.60
2018-08-06T10:10:53.723Z,22.48
2018-08-06T10:13:21.182Z,23.30
2018-08-06T10:15:48.708Z,26.50
2018-08-06T10:18:16.206Z,19.17
2018-08-06T10:20:49.556Z,29.42
2018-08-06T10:23:17.125Z,23.65
2018-08-06T10:25:44.607Z,33.80
2018-08-06T10:28:12.092Z,33.50
2018-08-06T10:30:39.649Z,32.28
2018-08-06T10:33:07.203Z,35.45
2018-08-06T11:14:46.693Z,28.70
2018-08-06T11:17:14.312Z,34.03
2018-08-06T11:19:41.775Z,30.30
2018-08-06T11:22:09.364Z,29.13
2018-08-06T11:24:36.886Z,34.80
2018-08-06T11:27:04.394Z,30.60
2018-08-06T11:29:31.868Z,26.60
2018-08-06T11:31:59.490Z,25.90
2018-08-06T11:34:26.927Z,27.07
2018-08-06T11:36:54.388Z,28.90
2018-08-06T11:39:21.883Z,41.07
2018-08-06T11:41:49.323Z,34.93
2018-08-06T11:44:16.761Z,34.63
2018-08-06T11:46:44.261Z,30.80
2018-08-06T11:49:12.363Z,27.37
2018-08-06T11:51:39.871Z,34.40
2018-08-06T11:54:07.307Z,31.60
2018-08-06T11:56:34.778Z,30.10
2018-08-06T11:59:02.227Z,35.03
2018-08-06T12:01:29.670Z,32.80
2018-08-06T12:03:57.107Z,38.77
2018-08-06T12:06:24.539Z,41.73
2018-08-06T12:08:51.984Z,30.00
2018-08-06T12:11:19.458Z,31.90
2018-08-06T12:13:46.993Z,33.53
2018-08-06T12:16:14.395Z,37.63
2018-08-06T12:18:42.055Z,36.97
2018-08-06T12:21:09.512Z,32.00
2018-08-06T12:23:37.063Z,39.50
2018-08-06T12:26:04.765Z,39.33
2018-08-06T12:28:32.187Z,53.33
2018-08-06T12:30:59.667Z,46.37
2018-08-06T12:33:27.262Z,41.93
2018-08-06T12:35:54.719Z,35.23
2018-08-06T12:38:22.245Z,44.70
2018-08-06T12:40:49.737Z,40.40
2018-08-06T12:43:17.185Z,47.47
2018-08-06T12:45:44.638Z,48.00
2018-08-06T12:48:12.070Z,48.80
2018-08-06T12:50:39.589Z,44.43
2018-08-06T12:53:07.052Z,36.97
2018-08-06T12:55:34.546Z,53.27
2018-08-06T12:58:02.082Z,37.37
2018-08-06T13:00:29.523Z,49.27
2018-08-06T13:02:56.971Z,53.90
2018-08-06T13:05:24.637Z,53.87
2018-08-06T13:07:52.089Z,46.53
2018-08-06T13:10:19.532Z,49.83
2018-08-06T13:12:47.005Z,46.37
2018-08-06T13:15:14.559Z,37.43
2018-08-06T13:17:42.149Z,35.13
2018-08-06T13:20:09.696Z,41.60
2018-08-06T13:22:37.215Z,42.53
2018-08-06T13:25:04.871Z,34.47
2018-08-06T13:27:32.297Z,55.83
2018-08-06T13:29:59.799Z,45.40
2018-08-06T13:32:27.284Z,43.83
2018-08-06T13:34:54.754Z,39.63
2018-08-06T13:37:22.200Z,51.20
2018-08-06T13:39:49.691Z,37.87
2018-08-06T13:42:17.149Z,55.30
2018-08-06T13:44:44.622Z,51.20
2018-08-06T13:47:12.107Z,56.90
2018-08-06T13:49:39.558Z,46.90
2018-08-06T13:52:07.040Z,37.03
2018-08-06T13:54:34.531Z,53.10
2018-08-06T13:57:02.008Z,52.63
2018-08-06T13:59:29.527Z,47.00
2018-08-06T14:01:57.216Z,47.40
2018-08-06T14:04:24.725Z,48.37
2018-08-06T14:06:52.273Z,37.37
2018-08-06T14:09:19.735Z,42.60
2018-08-06T14:11:47.264Z,47.80
2018-08-06T14:14:14.943Z,50.57
2018-08-06T14:16:42.414Z,48.50
2018-08-06T14:19:09.957Z,35.97
2018-08-06T14:21:37.493Z,43.17
2018-08-06T14:24:04.888Z,30.17
2018-08-06T14:26:32.373Z,33.83
2018-08-06T14:29:00.024Z,29.87
2018-08-06T14:31:27.567Z,29.53
2018-08-06T14:33:55.022Z,37.43
2018-08-06T14:36:22.452Z,31.00
2018-08-06T14:38:49.948Z,29.73
2018-08-06T14:41:17.467Z,27.90
2018-08-06T14:43:45.000Z,28.10
2018-08-06T14:46:12.679Z,32.87
2018-08-06T14:48:40.175Z,31.07
2018-08-06T14:51:07.635Z,27.50
2018-08-06T14:53:35.195Z,33.40
2018-08-06T14:56:02.858Z,35.73
2018-08-06T14:58:30.393Z,26.07
2018-08-06T15:00:57.914Z,35.60
2018-08-06T15:03:25.412Z,27.47
2018-08-06T15:05:52.922Z,42.33
2018-08-06T15:08:20.335Z,28.87
2018-08-06T15:10:47.762Z,39.00
2018-08-06T15:13:15.368Z,40.60
2018-08-06T15:15:42.766Z,41.33
2018-08-06T15:18:10.178Z,42.40
2018-08-06T15:20:37.621Z,32.30
2018-08-06T15:23:05.058Z,38.03
2018-08-06T15:25:32.797Z,40.57
2018-08-06T15:28:00.274Z,36.77
2018-08-06T15:30:27.731Z,34.83
2018-08-06T15:32:55.336Z,30.27
2018-08-06T15:35:22.757Z,29.60
2018-08-06T15:37:50.216Z,34.97
2018-08-06T15:40:17.848Z,34.03
2018-08-06T15:42:45.331Z,36.90
2018-08-06T15:45:12.800Z,32.77
2018-08-06T15:47:40.385Z,29.30
2018-08-06T15:50:07.835Z,27.25
2018-08-06T15:52:35.289Z,27.15
2018-08-06T15:55:03.595Z,29.63
2018-08-06T15:57:31.286Z,24.92
2018-08-06T15:59:58.744Z,32.30
2018-08-06T16:02:27.972Z,34.55
2018-08-06T16:04:55.408Z,34.05
2018-08-06T16:07:22.898Z,26.95
2018-08-06T16:09:50.369Z,29.73
2018-08-06T16:12:17.807Z,33.70
2018-08-06T16:14:45.268Z,30.35
2018-08-06T16:17:12.774Z,32.10
2018-08-06T16:19:40.386Z,39.17
2018-08-06T16:22:07.847Z,46.85
2018-08-06T16:24:35.273Z,38.65
2018-08-06T16:27:02.766Z,37.10
2018-08-06T16:29:30.170Z,48.92
2018-08-06T16:31:57.639Z,36.13
2018-08-06T16:34:25.259Z,35.75
2018-08-06T16:36:52.735Z,33.22
2018-08-06T16:39:20.277Z,28.23
2018-08-06T16:41:47.761Z,26.52
2018-08-06T16:44:15.209Z,29.80
2018-08-06T16:46:42.713Z,32.22
2018-08-06T16:49:10.204Z,29.70
2018-08-06T16:51:37.645Z,22.08
2018-08-06T16:54:05.103Z,17.95
2018-08-06T16:56:32.510Z,17.20
2018-08-06T16:58:59.988Z,14.13
2018-08-06T17:01:27.474Z,16.08
2018-08-06T17:03:55.003Z,16.40
2018-08-06T17:06:22.543Z,16.20
2018-08-06T17:08:49.973Z,18.25
2018-08-06T17:11:17.478Z,12.07
2018-08-06T17:16:12.020Z,13.45
2018-08-06T17:18:39.680Z,13.82
2018-08-06T17:21:07.124Z,12.00
2018-08-06T17:23:34.642Z,15.45
2018-08-06T17:26:02.190Z,14.73
2018-08-06T17:28:29.788Z,15.30
2018-08-06T17:30:57.321Z,16.05
2018-08-06T17:33:24.783Z,13.30
2018-08-06T17:35:52.367Z,16.48
2018-08-06T17:38:19.983Z,11.20
2018-08-06T17:40:47.667Z,12.23
2018-08-06T17:43:15.868Z,10.27
2018-08-06T17:45:43.369Z,26.12
2018-08-06T17:48:10.836Z,10.07
2018-08-06T17:50:38.611Z,11.00
2018-08-06T17:53:06.042Z,10.75
2018-08-06T17:55:33.678Z,12.68
2018-08-06T17:58:01.103Z,9.52
2018-08-06T18:00:28.744Z,10.15
2018-08-06T18:02:56.293Z,11.15
2018-08-06T18:05:24.307Z,12.68
2018-08-06T18:07:51.791Z,12.13
2018-08-06T18:10:19.302Z,27.95
2018-08-06T18:12:46.775Z,18.10
2018-08-06T18:15:14.211Z,13.38
2018-08-06T18:17:41.684Z,10.73
2018-08-06T18:20:09.210Z,12.65
2018-08-06T18:22:36.844Z,12.77
2018-08-06T18:25:04.370Z,30.80
2018-08-06T18:27:31.863Z,12.98
2018-08-06T18:29:59.272Z,11.15
2018-08-06T18:32:27.568Z,11.93
2018-08-06T18:34:55.043Z,7.47
2018-08-06T18:37:22.688Z,10.32
2018-08-06T18:39:50.152Z,8.95
2018-08-06T18:42:17.551Z,10.80
2018-08-06T18:44:45.015Z,7.97
2018-08-06T18:47:12.456Z,8.18
2018-08-06T18:49:39.904Z,10.65
2018-08-06T18:52:07.427Z,12.15
2018-08-06T18:54:34.892Z,8.45
2018-08-06T18:57:04.889Z,6.07
2018-08-06T18:59:32.347Z,7.70
2018-08-06T19:01:59.801Z,8.93
2018-08-06T19:04:27.340Z,9.45
2018-08-06T19:06:54.892Z,12.48
2018-08-06T19:09:22.318Z,8.65
2018-08-06T19:11:49.839Z,10.48
2018-08-06T19:14:17.266Z,9.07
2018-08-06T19:16:44.724Z,11.82
2018-08-06T19:19:17.919Z,8.38
2018-08-06T19:21:45.556Z,15.73
2018-08-06T19:24:12.946Z,8.38
2018-08-06T19:26:40.405Z,8.15
2018-08-06T19:29:08.129Z,7.55
2018-08-06T19:31:35.628Z,7.60
2018-08-06T19:34:03.087Z,11.12
2018-08-06T19:36:30.559Z,12.25
2018-08-06T19:38:57.982Z,9.95
2018-08-06T19:41:25.394Z,9.70
2018-08-06T19:43:53.791Z,10.65
2018-08-06T19:46:21.254Z,11.48
2018-08-06T19:48:48.748Z,14.60
2018-08-06T19:51:16.226Z,9.57
2018-08-06T19:53:43.752Z,10.73
2018-08-06T19:56:12.798Z,7.45
2018-08-06T19:58:40.230Z,6.10
2018-08-06T20:01:07.712Z,5.20
2018-08-06T20:03:35.218Z,5.80
2018-08-06T20:06:02.712Z,5.80
2018-08-06T20:08:30.163Z,6.47
2018-08-06T20:10:57.619Z,5.57
2018-08-06T20:13:25.124Z,10.07
2018-08-06T20:15:52.796Z,9.90
2018-08-06T20:18:20.320Z,5.75
2018-08-06T20:20:47.806Z,6.87
2018-08-06T20:23:15.295Z,10.25
2018-08-06T20:25:42.714Z,5.65
2018-08-06T20:28:10.114Z,6.15
2018-08-06T20:30:37.548Z,12.77
2018-08-06T20:33:05.046Z,6.35
2018-08-06T20:35:32.541Z,5.85
2018-08-06T20:38:00.027Z,7.28
2018-08-06T20:40:27.566Z,10.80
2018-08-06T20:42:55.037Z,6.07
2018-08-06T20:45:22.477Z,8.10
2018-08-06T20:47:49.969Z,7.47
2018-08-06T20:50:17.467Z,6.93
2018-08-06T20:52:44.938Z,7.60
2018-08-06T20:55:12.485Z,7.95
2018-08-06T20:57:39.936Z,12.07
2018-08-06T21:00:07.381Z,6.25
2018-08-06T21:02:34.975Z,14.23
2018-08-06T21:05:02.327Z,7.87
2018-08-06T21:07:29.811Z,7.47
2018-08-06T21:09:57.291Z,8.35
2018-08-06T21:12:24.722Z,8.27
2018-08-06T21:14:52.220Z,8.00
2018-08-06T21:17:19.769Z,6.82
2018-08-06T21:19:47.117Z,6.37
2018-08-06T21:22:14.636Z,6.72
2018-08-06T21:24:42.078Z,6.72
2018-08-06T21:27:09.752Z,6.07
2018-08-06T21:29:37.240Z,7.30
2018-08-06T21:32:04.696Z,8.55
2018-08-06T21:34:32.137Z,16.33
2018-08-06T21:36:59.567Z,7.20
2018-08-06T21:39:27.058Z,8.05
2018-08-06T21:41:54.501Z,11.32
2018-08-06T21:44:22.010Z,7.22
2018-08-06T21:46:49.442Z,8.13
2018-08-06T21:49:16.951Z,7.60
2018-08-06T21:51:44.459Z,8.52
2018-08-06T21:54:11.903Z,6.20
2018-08-06T21:56:39.290Z,8.70
2018-08-06T21:59:06.788Z,9.02
2018-08-06T22:01:34.222Z,6.80
2018-08-06T22:04:01.663Z,10.98
2018-08-06T22:06:29.102Z,6.57
2018-08-06T22:08:56.554Z,7.25
2018-08-06T22:11:24.003Z,11.50
2018-08-06T22:13:51.471Z,8.10
2018-08-06T22:16:18.909Z,6.65
2018-08-06T22:18:47.034Z,5.85
2018-08-06T22:21:14.507Z,6.45
2018-08-06T22:23:41.926Z,6.28
2018-08-06T22:26:09.495Z,8.25
2018-08-06T22:28:36.920Z,12.10
2018-08-06T22:31:04.309Z,6.43
2018-08-06T22:33:31.928Z,7.18
2018-08-06T22:36:01.302Z,6.68
2018-08-06T22:38:28.715Z,6.35
2018-08-06T22:40:56.119Z,8.18
2018-08-06T22:43:23.515Z,8.10
2018-08-06T22:45:51.072Z,8.45
2018-08-06T22:48:18.518Z,6.32
2018-08-06T22:50:45.986Z,7.35
2018-08-06T22:53:13.435Z,6.20
2018-08-06T22:55:40.840Z,8.63
2018-08-06T22:58:08.258Z,6.10
2018-08-06T23:00:35.823Z,7.47
2018-08-06T23:03:03.228Z,5.12
2018-08-06T23:05:30.624Z,6.65
2018-08-06T23:07:58.024Z,6.65
2018-08-06T23:10:25.636Z,5.70
2018-08-06T23:12:53.058Z,6.70
2018-08-06T23:15:20.485Z,7.82
2018-08-06T23:17:47.882Z,6.03
2018-08-06T23:20:15.295Z,6.03
2018-08-06T23:22:42.783Z,6.78
2018-08-06T23:25:10.187Z,6.10
2018-08-06T23:27:37.583Z,7.43
2018-08-06T23:30:04.997Z,5.43
2018-08-06T23:32:32.405Z,8.10
2018-08-06T23:34:59.823Z,8.10
2018-08-06T23:37:27.232Z,7.93
2018-08-06T23:39:54.697Z,7.80
2018-08-06T23:42:22.136Z,5.60
2018-08-06T23:44:49.671Z,7.68
2018-08-06T23:47:17.077Z,7.37
2018-08-06T23:49:44.494Z,6.30
2018-08-06T23:52:11.898Z,5.18
2018-08-06T23:54:39.309Z,7.10
2018-08-06T23:57:06.719Z,7.37
2018-08-06T23:59:34.126Z,9.68
